Black Earth, WI

5:53 AM CST on January 29, 2015 (GMT -0600)
Vermont Township | Change Station
CLOSE
Current Station
Personal Weather Station
Location: Black Earth, WI
Elevation: 1110 ft
Nearby Weather Stations

Elev 1110 ft 43.08 °N, 89.79 °W | Updated 2 seconds ago

Overcast
Overcast
30.5 °F
Feels Like 21 °F
N
12.0
Wind Variable Wind from NNE
Gusts 15.0 mph

Today
High -- | Low -- °F
--% Chance of Precip.
Yesterday
High -- | Low -- °F
Precip. -- in
7:17 AM 5:07 PM
Waxing Gibbous, 73% visible
Pressure 29.77 in
Visibility 7.0 miles
Clouds Overcast 800 ft
Windchill 21 °F
Dew Point 28 °F
Humidity 92%
Rainfall 0.00 in
Snow Depth Not available.
UV 0 out of 12
Pollen .10 out of 12
Air Quality Not available.
Flu Activity Not available.
METAR KC29 291115Z AUTO 33007KT 7SM OVC008 00/M01 A2977 RMK AO1 T00021012

More Conditions Fewer Conditions

Pressure 29.77 in
Visibility 7.0 miles
Clouds Overcast 800 ft
Windchill 21 °F
Dew Point 28 °F
Humidity 92%
Rainfall 0.00 in
Snow Depth Not available.
UV 0 out of 12
Pollen .10 out of 12
Air Quality Not available.
Flu Activity Not available.
METAR KC29 291115Z AUTO 33007KT 7SM OVC008 00/M01 A2977 RMK AO1 T00021012

More Conditions Fewer Conditions

10-Day Weather Forecast

Almanac

Astronomy

Jan. 29, 2015 Rise Set
Actual Time
Civil Twilight
Nautical Twilight
Astronomical Twilight
Moon
Length of Visible Light
Length of Day
Tomorrow will be .
, % of the Moon is Illuminated

Today's Extremes

State Highs State Lows

Community

WunderPhotos

Upload Photos

1,791,408 photos uploaded!

WunderBlogs® & News

Nearby

Air Quality

  Air Quality AQ Index Pollutant
Not available.

Snow Depth

Station Depth Elevation

Earthquake Activity

City Distance Mag. Time & Date
Minimum magnitude displayed is 2.5.

Coastal Water Temperatures

Place Temperature

Nearby Weather Stations